sensor_id;sensor_type;location;lat;lon;timestamp;P1;durP1;ratioP1;P2;durP2;ratioP2
64321;SDS011;50659;48.078;16.308;2022-07-06T00:01:28;8.55;;;4.38;;
64321;SDS011;50659;48.078;16.308;2022-07-06T00:05:33;4.90;;;4.40;;
64321;SDS011;50659;48.078;16.308;2022-07-06T00:09:36;6.45;;;4.30;;
64321;SDS011;50659;48.078;16.308;2022-07-06T00:13:39;5.20;;;4.70;;
64321;SDS011;50659;48.078;16.308;2022-07-06T00:17:42;6.18;;;4.47;;
64321;SDS011;50659;48.078;16.308;2022-07-06T00:21:46;4.70;;;4.10;;
64321;SDS011;50659;48.078;16.308;2022-07-06T00:25:50;5.03;;;3.97;;
64321;SDS011;50659;48.078;16.308;2022-07-06T00:29:53;7.25;;;4.80;;
64321;SDS011;50659;48.078;16.308;2022-07-06T00:33:56;5.40;;;4.68;;
64321;SDS011;50659;48.078;16.308;2022-07-06T00:38:00;4.82;;;4.32;;
64321;SDS011;50659;48.078;16.308;2022-07-06T00:42:04;8.13;;;4.65;;
64321;SDS011;50659;48.078;16.308;2022-07-06T00:46:09;4.97;;;4.47;;
64321;SDS011;50659;48.078;16.308;2022-07-06T00:50:13;5.93;;;4.50;;
64321;SDS011;50659;48.078;16.308;2022-07-06T00:54:20;5.15;;;4.28;;
64321;SDS011;50659;48.078;16.308;2022-07-06T00:58:23;5.63;;;4.00;;
64321;SDS011;50659;48.078;16.308;2022-07-06T01:02:27;6.65;;;4.60;;
64321;SDS011;50659;48.078;16.308;2022-07-06T01:06:33;5.30;;;4.28;;
64321;SDS011;50659;48.078;16.308;2022-07-06T01:10:38;5.55;;;4.40;;
64321;SDS011;50659;48.078;16.308;2022-07-06T01:14:41;5.57;;;4.57;;
64321;SDS011;50659;48.078;16.308;2022-07-06T01:18:46;7.40;;;4.00;;
64321;SDS011;50659;48.078;16.308;2022-07-06T01:22:51;6.28;;;4.15;;
64321;SDS011;50659;48.078;16.308;2022-07-06T01:26:57;5.15;;;4.25;;
64321;SDS011;50659;48.078;16.308;2022-07-06T01:31:00;5.50;;;4.10;;
64321;SDS011;50659;48.078;16.308;2022-07-06T01:35:04;5.43;;;4.20;;
64321;SDS011;50659;48.078;16.308;2022-07-06T01:39:10;6.78;;;4.10;;
64321;SDS011;50659;48.078;16.308;2022-07-06T01:43:13;5.30;;;3.78;;
64321;SDS011;50659;48.078;16.308;2022-07-06T01:47:17;5.30;;;3.63;;
64321;SDS011;50659;48.078;16.308;2022-07-06T01:51:29;4.53;;;3.55;;
64321;SDS011;50659;48.078;16.308;2022-07-06T01:55:34;6.38;;;3.80;;
64321;SDS011;50659;48.078;16.308;2022-07-06T01:59:38;6.85;;;3.38;;
64321;SDS011;50659;48.078;16.308;2022-07-06T02:03:41;5.80;;;3.40;;
64321;SDS011;50659;48.078;16.308;2022-07-06T02:07:44;3.95;;;3.42;;
64321;SDS011;50659;48.078;16.308;2022-07-06T02:11:49;5.97;;;3.55;;
64321;SDS011;50659;48.078;16.308;2022-07-06T02:15:54;3.63;;;3.03;;
64321;SDS011;50659;48.078;16.308;2022-07-06T02:19:57;7.28;;;3.58;;
64321;SDS011;50659;48.078;16.308;2022-07-06T02:24:00;4.55;;;3.45;;
64321;SDS011;50659;48.078;16.308;2022-07-06T02:28:05;5.82;;;3.60;;
64321;SDS011;50659;48.078;16.308;2022-07-06T02:32:09;4.20;;;3.70;;
64321;SDS011;50659;48.078;16.308;2022-07-06T02:36:13;6.70;;;3.60;;
64321;SDS011;50659;48.078;16.308;2022-07-06T02:40:17;4.65;;;3.40;;
64321;SDS011;50659;48.078;16.308;2022-07-06T02:44:22;4.20;;;3.70;;
64321;SDS011;50659;48.078;16.308;2022-07-06T02:48:26;5.35;;;3.47;;
64321;SDS011;50659;48.078;16.308;2022-07-06T02:52:29;7.50;;;3.80;;
64321;SDS011;50659;48.078;16.308;2022-07-06T02:56:40;4.30;;;3.78;;
64321;SDS011;50659;48.078;16.308;2022-07-06T03:00:45;5.18;;;3.88;;
64321;SDS011;50659;48.078;16.308;2022-07-06T03:04:48;6.35;;;4.05;;
64321;SDS011;50659;48.078;16.308;2022-07-06T03:08:52;4.00;;;3.50;;
64321;SDS011;50659;48.078;16.308;2022-07-06T03:12:55;3.97;;;3.42;;
64321;SDS011;50659;48.078;16.308;2022-07-06T03:17:00;4.32;;;3.30;;
64321;SDS011;50659;48.078;16.308;2022-07-06T03:21:04;4.95;;;3.13;;
64321;SDS011;50659;48.078;16.308;2022-07-06T03:25:08;4.88;;;3.05;;
64321;SDS011;50659;48.078;16.308;2022-07-06T03:29:13;4.07;;;3.20;;
64321;SDS011;50659;48.078;16.308;2022-07-06T03:33:18;3.83;;;3.20;;
64321;SDS011;50659;48.078;16.308;2022-07-06T03:37:21;4.00;;;3.33;;
64321;SDS011;50659;48.078;16.308;2022-07-06T03:41:25;6.97;;;3.25;;
64321;SDS011;50659;48.078;16.308;2022-07-06T03:45:28;5.07;;;3.30;;
64321;SDS011;50659;48.078;16.308;2022-07-06T03:49:35;4.35;;;3.17;;
64321;SDS011;50659;48.078;16.308;2022-07-06T03:53:40;4.82;;;3.30;;
64321;SDS011;50659;48.078;16.308;2022-07-06T03:57:43;5.00;;;3.85;;
64321;SDS011;50659;48.078;16.308;2022-07-06T04:01:49;6.20;;;3.25;;
64321;SDS011;50659;48.078;16.308;2022-07-06T04:05:56;4.35;;;3.30;;
64321;SDS011;50659;48.078;16.308;2022-07-06T04:10:00;5.38;;;3.63;;
64321;SDS011;50659;48.078;16.308;2022-07-06T04:14:03;5.25;;;3.17;;
64321;SDS011;50659;48.078;16.308;2022-07-06T04:18:07;3.20;;;3.00;;
64321;SDS011;50659;48.078;16.308;2022-07-06T04:22:18;4.75;;;3.30;;
64321;SDS011;50659;48.078;16.308;2022-07-06T04:26:21;3.65;;;3.00;;
64321;SDS011;50659;48.078;16.308;2022-07-06T04:30:25;4.05;;;3.13;;
64321;SDS011;50659;48.078;16.308;2022-07-06T04:34:31;3.40;;;3.10;;
64321;SDS011;50659;48.078;16.308;2022-07-06T04:38:36;3.80;;;2.85;;
64321;SDS011;50659;48.078;16.308;2022-07-06T04:42:41;3.80;;;2.65;;
64321;SDS011;50659;48.078;16.308;2022-07-06T04:46:44;4.53;;;2.50;;
64321;SDS011;50659;48.078;16.308;2022-07-06T04:50:47;3.25;;;2.65;;
64321;SDS011;50659;48.078;16.308;2022-07-06T04:54:58;3.72;;;2.50;;
64321;SDS011;50659;48.078;16.308;2022-07-06T04:59:01;4.60;;;2.45;;
64321;SDS011;50659;48.078;16.308;2022-07-06T05:03:07;3.42;;;1.90;;
64321;SDS011;50659;48.078;16.308;2022-07-06T05:07:10;6.15;;;2.75;;
64321;SDS011;50659;48.078;16.308;2022-07-06T05:11:18;6.80;;;3.40;;
64321;SDS011;50659;48.078;16.308;2022-07-06T05:15:23;5.55;;;3.38;;
64321;SDS011;50659;48.078;16.308;2022-07-06T05:19:27;6.18;;;3.25;;
64321;SDS011;50659;48.078;16.308;2022-07-06T05:23:30;7.97;;;3.50;;
64321;SDS011;50659;48.078;16.308;2022-07-06T05:27:35;6.30;;;2.75;;
64321;SDS011;50659;48.078;16.308;2022-07-06T05:31:39;9.05;;;2.80;;
64321;SDS011;50659;48.078;16.308;2022-07-06T05:35:42;10.70;;;2.80;;
64321;SDS011;50659;48.078;16.308;2022-07-06T05:39:56;11.25;;;3.22;;
64321;SDS011;50659;48.078;16.308;2022-07-06T05:44:00;7.35;;;2.78;;
64321;SDS011;50659;48.078;16.308;2022-07-06T05:48:04;7.35;;;2.65;;
64321;SDS011;50659;48.078;16.308;2022-07-06T05:52:26;5.40;;;2.15;;
64321;SDS011;50659;48.078;16.308;2022-07-06T05:56:29;6.10;;;2.30;;
64321;SDS011;50659;48.078;16.308;2022-07-06T06:00:35;4.60;;;2.33;;
64321;SDS011;50659;48.078;16.308;2022-07-06T06:04:45;7.93;;;2.10;;
64321;SDS011;50659;48.078;16.308;2022-07-06T06:08:49;11.75;;;2.53;;
64321;SDS011;50659;48.078;16.308;2022-07-06T06:12:53;3.67;;;1.83;;
64321;SDS011;50659;48.078;16.308;2022-07-06T06:16:58;4.32;;;1.60;;
64321;SDS011;50659;48.078;16.308;2022-07-06T06:21:03;2.00;;;1.30;;
64321;SDS011;50659;48.078;16.308;2022-07-06T06:25:06;4.07;;;1.23;;
64321;SDS011;50659;48.078;16.308;2022-07-06T06:29:09;2.75;;;1.20;;
64321;SDS011;50659;48.078;16.308;2022-07-06T06:33:16;2.90;;;1.20;;
64321;SDS011;50659;48.078;16.308;2022-07-06T06:37:20;3.47;;;1.10;;
64321;SDS011;50659;48.078;16.308;2022-07-06T06:41:23;2.63;;;0.93;;
64321;SDS011;50659;48.078;16.308;2022-07-06T06:45:26;3.15;;;1.10;;
64321;SDS011;50659;48.078;16.308;2022-07-06T06:49:31;1.38;;;1.00;;
64321;SDS011;50659;48.078;16.308;2022-07-06T06:53:34;2.70;;;1.20;;
64321;SDS011;50659;48.078;16.308;2022-07-06T06:57:40;3.53;;;1.20;;
64321;SDS011;50659;48.078;16.308;2022-07-06T07:01:43;3.67;;;1.20;;
64321;SDS011;50659;48.078;16.308;2022-07-06T07:05:55;1.80;;;1.05;;
64321;SDS011;50659;48.078;16.308;2022-07-06T07:09:58;5.30;;;1.40;;
64321;SDS011;50659;48.078;16.308;2022-07-06T07:14:02;2.40;;;1.33;;
64321;SDS011;50659;48.078;16.308;2022-07-06T07:18:05;2.67;;;1.17;;
64321;SDS011;50659;48.078;16.308;2022-07-06T07:22:17;3.88;;;1.23;;
64321;SDS011;50659;48.078;16.308;2022-07-06T07:26:20;4.55;;;1.17;;
64321;SDS011;50659;48.078;16.308;2022-07-06T07:30:23;3.97;;;1.27;;
64321;SDS011;50659;48.078;16.308;2022-07-06T07:34:26;7.53;;;1.48;;
64321;SDS011;50659;48.078;16.308;2022-07-06T07:38:31;5.45;;;1.30;;
64321;SDS011;50659;48.078;16.308;2022-07-06T07:42:34;3.08;;;1.30;;
64321;SDS011;50659;48.078;16.308;2022-07-06T07:46:40;4.22;;;1.25;;
64321;SDS011;50659;48.078;16.308;2022-07-06T07:50:43;3.60;;;1.20;;
64321;SDS011;50659;48.078;16.308;2022-07-06T07:54:48;2.55;;;1.45;;
64321;SDS011;50659;48.078;16.308;2022-07-06T07:59:11;4.30;;;1.40;;
64321;SDS011;50659;48.078;16.308;2022-07-06T08:03:15;3.47;;;1.20;;
64321;SDS011;50659;48.078;16.308;2022-07-06T08:07:18;2.33;;;1.25;;
64321;SDS011;50659;48.078;16.308;2022-07-06T08:11:23;8.30;;;1.90;;
64321;SDS011;50659;48.078;16.308;2022-07-06T08:15:26;3.88;;;1.30;;
64321;SDS011;50659;48.078;16.308;2022-07-06T08:19:30;5.22;;;1.60;;
64321;SDS011;50659;48.078;16.308;2022-07-06T08:23:33;5.65;;;1.77;;
64321;SDS011;50659;48.078;16.308;2022-07-06T08:27:38;4.25;;;1.48;;
64321;SDS011;50659;48.078;16.308;2022-07-06T08:31:42;3.50;;;1.40;;
64321;SDS011;50659;48.078;16.308;2022-07-06T08:35:56;2.17;;;1.30;;
64321;SDS011;50659;48.078;16.308;2022-07-06T08:39:59;4.10;;;1.35;;
64321;SDS011;50659;48.078;16.308;2022-07-06T08:44:04;6.90;;;1.40;;
64321;SDS011;50659;48.078;16.308;2022-07-06T08:48:08;8.45;;;1.48;;
64321;SDS011;50659;48.078;16.308;2022-07-06T08:52:12;2.90;;;1.10;;
64321;SDS011;50659;48.078;16.308;2022-07-06T08:56:16;3.13;;;1.35;;
64321;SDS011;50659;48.078;16.308;2022-07-06T09:00:22;5.18;;;1.38;;
64321;SDS011;50659;48.078;16.308;2022-07-06T09:04:26;2.60;;;1.20;;
64321;SDS011;50659;48.078;16.308;2022-07-06T09:08:29;3.40;;;1.20;;
64321;SDS011;50659;48.078;16.308;2022-07-06T09:12:33;3.47;;;1.23;;
64321;SDS011;50659;48.078;16.308;2022-07-06T09:16:38;2.03;;;1.30;;
64321;SDS011;50659;48.078;16.308;2022-07-06T09:20:41;2.08;;;1.10;;
64321;SDS011;50659;48.078;16.308;2022-07-06T09:24:44;4.40;;;1.40;;
64321;SDS011;50659;48.078;16.308;2022-07-06T09:28:51;6.15;;;1.30;;
64321;SDS011;50659;48.078;16.308;2022-07-06T09:32:58;4.10;;;1.40;;
64321;SDS011;50659;48.078;16.308;2022-07-06T09:37:02;6.72;;;1.50;;
64321;SDS011;50659;48.078;16.308;2022-07-06T09:41:05;2.13;;;1.35;;
64321;SDS011;50659;48.078;16.308;2022-07-06T09:45:08;3.50;;;1.40;;
64321;SDS011;50659;48.078;16.308;2022-07-06T09:49:13;4.35;;;1.52;;
64321;SDS011;50659;48.078;16.308;2022-07-06T09:53:19;3.90;;;1.40;;
64321;SDS011;50659;48.078;16.308;2022-07-06T09:57:25;4.22;;;1.50;;
64321;SDS011;50659;48.078;16.308;2022-07-06T10:01:28;3.47;;;1.40;;
64321;SDS011;50659;48.078;16.308;2022-07-06T10:05:33;6.68;;;1.40;;
64321;SDS011;50659;48.078;16.308;2022-07-06T10:09:40;6.27;;;1.50;;
64321;SDS011;50659;48.078;16.308;2022-07-06T10:13:43;3.30;;;1.38;;
64321;SDS011;50659;48.078;16.308;2022-07-06T10:17:49;2.70;;;1.35;;
64321;SDS011;50659;48.078;16.308;2022-07-06T10:21:55;2.30;;;1.50;;
64321;SDS011;50659;48.078;16.308;2022-07-06T10:26:01;6.22;;;1.50;;
64321;SDS011;50659;48.078;16.308;2022-07-06T10:30:13;5.85;;;1.60;;
64321;SDS011;50659;48.078;16.308;2022-07-06T10:34:18;5.07;;;1.77;;
64321;SDS011;50659;48.078;16.308;2022-07-06T10:38:23;4.35;;;1.95;;
64321;SDS011;50659;48.078;16.308;2022-07-06T10:42:40;3.17;;;2.10;;
64321;SDS011;50659;48.078;16.308;2022-07-06T10:46:51;9.25;;;3.10;;
64321;SDS011;50659;48.078;16.308;2022-07-06T10:50:55;3.20;;;2.10;;
64321;SDS011;50659;48.078;16.308;2022-07-06T10:55:02;10.93;;;2.30;;
64321;SDS011;50659;48.078;16.308;2022-07-06T10:59:08;7.63;;;2.85;;
64321;SDS011;50659;48.078;16.308;2022-07-06T11:07:48;6.35;;;2.53;;
64321;SDS011;50659;48.078;16.308;2022-07-06T11:11:53;3.17;;;2.08;;
64321;SDS011;50659;48.078;16.308;2022-07-06T11:16:02;4.63;;;2.30;;
64321;SDS011;50659;48.078;16.308;2022-07-06T11:20:08;4.85;;;2.10;;
64321;SDS011;50659;48.078;16.308;2022-07-06T11:24:13;3.90;;;2.08;;
64321;SDS011;50659;48.078;16.308;2022-07-06T11:28:19;4.47;;;2.00;;
64321;SDS011;50659;48.078;16.308;2022-07-06T11:32:24;3.80;;;1.98;;
64321;SDS011;50659;48.078;16.308;2022-07-06T11:36:28;4.60;;;1.80;;
64321;SDS011;50659;48.078;16.308;2022-07-06T11:40:37;2.80;;;1.50;;
64321;SDS011;50659;48.078;16.308;2022-07-06T11:44:41;2.67;;;1.75;;
64321;SDS011;50659;48.078;16.308;2022-07-06T11:48:45;2.45;;;1.52;;
64321;SDS011;50659;48.078;16.308;2022-07-06T11:52:48;4.90;;;1.90;;
64321;SDS011;50659;48.078;16.308;2022-07-06T11:56:53;3.35;;;1.90;;
64321;SDS011;50659;48.078;16.308;2022-07-06T12:01:05;5.43;;;1.90;;
64321;SDS011;50659;48.078;16.308;2022-07-06T12:05:09;3.50;;;1.90;;
64321;SDS011;50659;48.078;16.308;2022-07-06T12:09:12;3.47;;;1.70;;
64321;SDS011;50659;48.078;16.308;2022-07-06T12:13:16;3.85;;;2.00;;
64321;SDS011;50659;48.078;16.308;2022-07-06T12:17:20;3.05;;;1.80;;
64321;SDS011;50659;48.078;16.308;2022-07-06T12:21:24;4.97;;;1.85;;
64321;SDS011;50659;48.078;16.308;2022-07-06T12:25:30;4.00;;;2.00;;
64321;SDS011;50659;48.078;16.308;2022-07-06T12:29:33;4.10;;;2.13;;
64321;SDS011;50659;48.078;16.308;2022-07-06T12:33:38;3.38;;;2.00;;
64321;SDS011;50659;48.078;16.308;2022-07-06T12:37:54;3.70;;;1.70;;
64321;SDS011;50659;48.078;16.308;2022-07-06T12:42:00;4.18;;;1.80;;
64321;SDS011;50659;48.078;16.308;2022-07-06T12:46:25;5.00;;;1.75;;
64321;SDS011;50659;48.078;16.308;2022-07-06T12:50:32;6.32;;;1.85;;
64321;SDS011;50659;48.078;16.308;2022-07-06T12:54:39;7.40;;;1.95;;
64321;SDS011;50659;48.078;16.308;2022-07-06T12:58:56;2.15;;;1.60;;
64321;SDS011;50659;48.078;16.308;2022-07-06T13:03:00;3.78;;;1.55;;
64321;SDS011;50659;48.078;16.308;2022-07-06T13:07:18;4.85;;;1.50;;
64321;SDS011;50659;48.078;16.308;2022-07-06T13:11:21;4.57;;;1.55;;
64321;SDS011;50659;48.078;16.308;2022-07-06T13:15:24;3.85;;;1.55;;
64321;SDS011;50659;48.078;16.308;2022-07-06T13:19:28;4.00;;;1.88;;
64321;SDS011;50659;48.078;16.308;2022-07-06T13:23:32;2.65;;;1.70;;
64321;SDS011;50659;48.078;16.308;2022-07-06T13:27:35;2.97;;;1.60;;
64321;SDS011;50659;48.078;16.308;2022-07-06T13:31:39;3.28;;;1.75;;
64321;SDS011;50659;48.078;16.308;2022-07-06T13:35:43;6.78;;;1.60;;
64321;SDS011;50659;48.078;16.308;2022-07-06T13:39:47;3.65;;;1.38;;
64321;SDS011;50659;48.078;16.308;2022-07-06T13:43:50;7.43;;;2.40;;
64321;SDS011;50659;48.078;16.308;2022-07-06T13:47:53;18.15;;;3.88;;
64321;SDS011;50659;48.078;16.308;2022-07-06T13:51:56;6.05;;;2.20;;
64321;SDS011;50659;48.078;16.308;2022-07-06T13:56:06;4.85;;;2.28;;
64321;SDS011;50659;48.078;16.308;2022-07-06T14:00:10;6.40;;;2.00;;
64321;SDS011;50659;48.078;16.308;2022-07-06T14:04:15;2.13;;;1.65;;
64321;SDS011;50659;48.078;16.308;2022-07-06T14:08:18;1.73;;;1.60;;
64321;SDS011;50659;48.078;16.308;2022-07-06T14:12:23;3.65;;;1.40;;
64321;SDS011;50659;48.078;16.308;2022-07-06T14:16:27;2.90;;;1.70;;
64321;SDS011;50659;48.078;16.308;2022-07-06T14:20:30;2.70;;;1.70;;
64321;SDS011;50659;48.078;16.308;2022-07-06T14:24:33;3.38;;;1.60;;
64321;SDS011;50659;48.078;16.308;2022-07-06T14:28:38;4.07;;;1.77;;
64321;SDS011;50659;48.078;16.308;2022-07-06T14:32:41;2.97;;;1.80;;
64321;SDS011;50659;48.078;16.308;2022-07-06T14:36:45;2.55;;;1.95;;
64321;SDS011;50659;48.078;16.308;2022-07-06T14:40:48;3.13;;;2.03;;
64321;SDS011;50659;48.078;16.308;2022-07-06T14:44:53;5.00;;;2.08;;
64321;SDS011;50659;48.078;16.308;2022-07-06T14:48:55;3.50;;;2.10;;
64321;SDS011;50659;48.078;16.308;2022-07-06T14:52:59;4.25;;;2.10;;
64321;SDS011;50659;48.078;16.308;2022-07-06T14:57:02;3.42;;;2.10;;
64321;SDS011;50659;48.078;16.308;2022-07-06T15:01:07;3.50;;;2.05;;
64321;SDS011;50659;48.078;16.308;2022-07-06T15:05:10;4.40;;;2.30;;
64321;SDS011;50659;48.078;16.308;2022-07-06T15:09:14;3.58;;;2.00;;
64321;SDS011;50659;48.078;16.308;2022-07-06T15:13:17;3.70;;;2.10;;
64321;SDS011;50659;48.078;16.308;2022-07-06T15:17:22;3.28;;;1.90;;
64321;SDS011;50659;48.078;16.308;2022-07-06T15:21:25;3.60;;;1.80;;
64321;SDS011;50659;48.078;16.308;2022-07-06T15:25:28;3.55;;;1.73;;
64321;SDS011;50659;48.078;16.308;2022-07-06T15:29:31;2.92;;;1.70;;
64321;SDS011;50659;48.078;16.308;2022-07-06T15:33:36;3.88;;;1.80;;
64321;SDS011;50659;48.078;16.308;2022-07-06T15:37:39;5.38;;;1.75;;
64321;SDS011;50659;48.078;16.308;2022-07-06T15:41:43;3.25;;;2.40;;
64321;SDS011;50659;48.078;16.308;2022-07-06T15:45:46;2.13;;;1.73;;
64321;SDS011;50659;48.078;16.308;2022-07-06T15:49:50;2.40;;;1.67;;
64321;SDS011;50659;48.078;16.308;2022-07-06T15:53:54;2.90;;;1.30;;
64321;SDS011;50659;48.078;16.308;2022-07-06T15:57:57;5.15;;;1.30;;
64321;SDS011;50659;48.078;16.308;2022-07-06T16:02:01;1.67;;;1.15;;
64321;SDS011;50659;48.078;16.308;2022-07-06T16:06:06;1.50;;;1.20;;
64321;SDS011;50659;48.078;16.308;2022-07-06T16:10:11;1.40;;;1.30;;
64321;SDS011;50659;48.078;16.308;2022-07-06T16:14:14;2.92;;;1.33;;
64321;SDS011;50659;48.078;16.308;2022-07-06T16:18:17;2.92;;;1.48;;
64321;SDS011;50659;48.078;16.308;2022-07-06T16:22:22;2.38;;;1.40;;
64321;SDS011;50659;48.078;16.308;2022-07-06T16:26:26;1.30;;;1.20;;
64321;SDS011;50659;48.078;16.308;2022-07-06T16:30:31;2.08;;;1.33;;
64321;SDS011;50659;48.078;16.308;2022-07-06T16:34:34;2.90;;;1.33;;
64321;SDS011;50659;48.078;16.308;2022-07-06T16:38:39;1.50;;;1.35;;
64321;SDS011;50659;48.078;16.308;2022-07-06T16:42:42;2.10;;;1.40;;
64321;SDS011;50659;48.078;16.308;2022-07-06T16:46:45;2.00;;;1.27;;
64321;SDS011;50659;48.078;16.308;2022-07-06T16:50:48;1.75;;;1.25;;
64321;SDS011;50659;48.078;16.308;2022-07-06T16:54:53;2.60;;;1.17;;
64321;SDS011;50659;48.078;16.308;2022-07-06T16:58:56;1.95;;;1.50;;
64321;SDS011;50659;48.078;16.308;2022-07-06T17:03:01;2.67;;;1.30;;
64321;SDS011;50659;48.078;16.308;2022-07-06T17:07:04;1.88;;;1.20;;
64321;SDS011;50659;48.078;16.308;2022-07-06T17:11:08;1.63;;;1.27;;
64321;SDS011;50659;48.078;16.308;2022-07-06T17:15:11;2.22;;;1.50;;
64321;SDS011;50659;48.078;16.308;2022-07-06T17:19:14;3.25;;;1.50;;
64321;SDS011;50659;48.078;16.308;2022-07-06T17:23:17;2.42;;;1.30;;
64321;SDS011;50659;48.078;16.308;2022-07-06T17:27:22;1.67;;;1.40;;
64321;SDS011;50659;48.078;16.308;2022-07-06T17:31:25;2.88;;;1.33;;
64321;SDS011;50659;48.078;16.308;2022-07-06T17:35:28;2.97;;;1.70;;
64321;SDS011;50659;48.078;16.308;2022-07-06T17:39:33;3.63;;;1.80;;
64321;SDS011;50659;48.078;16.308;2022-07-06T17:43:38;2.05;;;1.77;;
64321;SDS011;50659;48.078;16.308;2022-07-06T17:47:49;3.50;;;1.50;;
64321;SDS011;50659;48.078;16.308;2022-07-06T17:51:52;2.33;;;1.70;;
64321;SDS011;50659;48.078;16.308;2022-07-06T17:55:55;4.60;;;1.83;;
64321;SDS011;50659;48.078;16.308;2022-07-06T18:00:00;3.28;;;1.70;;
64321;SDS011;50659;48.078;16.308;2022-07-06T18:04:04;1.95;;;1.70;;
64321;SDS011;50659;48.078;16.308;2022-07-06T18:08:07;2.33;;;1.80;;
64321;SDS011;50659;48.078;16.308;2022-07-06T18:12:10;4.05;;;1.80;;
64321;SDS011;50659;48.078;16.308;2022-07-06T18:16:15;5.82;;;1.70;;
64321;SDS011;50659;48.078;16.308;2022-07-06T18:20:18;2.67;;;1.98;;
64321;SDS011;50659;48.078;16.308;2022-07-06T18:24:21;2.00;;;1.80;;
64321;SDS011;50659;48.078;16.308;2022-07-06T18:28:24;2.65;;;1.67;;
64321;SDS011;50659;48.078;16.308;2022-07-06T18:32:29;2.58;;;1.83;;
64321;SDS011;50659;48.078;16.308;2022-07-06T18:36:32;2.83;;;1.85;;
64321;SDS011;50659;48.078;16.308;2022-07-06T18:40:36;2.25;;;1.90;;
64321;SDS011;50659;48.078;16.308;2022-07-06T18:44:40;8.18;;;2.10;;
64321;SDS011;50659;48.078;16.308;2022-07-06T18:48:44;9.85;;;2.20;;
64321;SDS011;50659;48.078;16.308;2022-07-06T18:52:47;2.40;;;1.88;;
64321;SDS011;50659;48.078;16.308;2022-07-06T18:56:50;2.97;;;2.08;;
64321;SDS011;50659;48.078;16.308;2022-07-06T19:00:53;3.50;;;1.90;;
64321;SDS011;50659;48.078;16.308;2022-07-06T19:04:58;3.05;;;1.70;;
64321;SDS011;50659;48.078;16.308;2022-07-06T19:09:06;3.70;;;1.90;;
64321;SDS011;50659;48.078;16.308;2022-07-06T19:13:09;2.25;;;1.92;;
64321;SDS011;50659;48.078;16.308;2022-07-06T19:17:12;3.17;;;1.90;;
64321;SDS011;50659;48.078;16.308;2022-07-06T19:21:17;3.75;;;2.15;;
64321;SDS011;50659;48.078;16.308;2022-07-06T19:25:20;2.38;;;1.95;;
64321;SDS011;50659;48.078;16.308;2022-07-06T19:29:23;3.35;;;2.20;;
64321;SDS011;50659;48.078;16.308;2022-07-06T19:33:27;2.95;;;2.00;;
64321;SDS011;50659;48.078;16.308;2022-07-06T19:37:33;3.72;;;2.38;;
64321;SDS011;50659;48.078;16.308;2022-07-06T19:41:36;3.58;;;2.25;;
64321;SDS011;50659;48.078;16.308;2022-07-06T19:45:39;3.00;;;2.60;;
64321;SDS011;50659;48.078;16.308;2022-07-06T19:49:42;4.15;;;2.17;;
64321;SDS011;50659;48.078;16.308;2022-07-06T19:53:46;3.13;;;2.20;;
64321;SDS011;50659;48.078;16.308;2022-07-06T19:57:52;2.42;;;2.13;;
64321;SDS011;50659;48.078;16.308;2022-07-06T20:01:57;4.78;;;2.30;;
64321;SDS011;50659;48.078;16.308;2022-07-06T20:06:00;4.60;;;2.40;;
64321;SDS011;50659;48.078;16.308;2022-07-06T20:10:05;4.10;;;2.00;;
64321;SDS011;50659;48.078;16.308;2022-07-06T20:14:09;4.10;;;2.20;;
64321;SDS011;50659;48.078;16.308;2022-07-06T20:18:12;2.63;;;2.38;;
64321;SDS011;50659;48.078;16.308;2022-07-06T20:22:15;3.40;;;2.13;;
64321;SDS011;50659;48.078;16.308;2022-07-06T20:26:19;4.07;;;2.35;;
64321;SDS011;50659;48.078;16.308;2022-07-06T20:30:22;2.58;;;2.10;;
64321;SDS011;50659;48.078;16.308;2022-07-06T20:34:25;3.50;;;2.10;;
64321;SDS011;50659;48.078;16.308;2022-07-06T20:38:28;4.63;;;2.50;;
64321;SDS011;50659;48.078;16.308;2022-07-06T20:42:33;3.20;;;2.20;;
64321;SDS011;50659;48.078;16.308;2022-07-06T20:46:36;4.57;;;2.40;;
64321;SDS011;50659;48.078;16.308;2022-07-06T20:50:39;4.28;;;2.42;;
64321;SDS011;50659;48.078;16.308;2022-07-06T20:54:42;4.63;;;2.42;;
64321;SDS011;50659;48.078;16.308;2022-07-06T20:58:51;3.45;;;2.15;;
64321;SDS011;50659;48.078;16.308;2022-07-06T21:03:13;4.25;;;2.30;;
64321;SDS011;50659;48.078;16.308;2022-07-06T21:07:16;2.42;;;2.17;;
64321;SDS011;50659;48.078;16.308;2022-07-06T21:11:19;2.38;;;2.17;;
64321;SDS011;50659;48.078;16.308;2022-07-06T21:15:24;4.63;;;2.40;;
64321;SDS011;50659;48.078;16.308;2022-07-06T21:19:27;2.75;;;2.20;;
64321;SDS011;50659;48.078;16.308;2022-07-06T21:23:30;4.97;;;2.25;;
64321;SDS011;50659;48.078;16.308;2022-07-06T21:27:35;3.05;;;2.30;;
64321;SDS011;50659;48.078;16.308;2022-07-06T21:31:39;5.25;;;2.20;;
64321;SDS011;50659;48.078;16.308;2022-07-06T21:35:42;2.60;;;2.20;;
64321;SDS011;50659;48.078;16.308;2022-07-06T21:39:45;4.28;;;2.20;;
64321;SDS011;50659;48.078;16.308;2022-07-06T21:43:48;3.15;;;2.20;;
64321;SDS011;50659;48.078;16.308;2022-07-06T21:47:53;3.15;;;2.25;;
64321;SDS011;50659;48.078;16.308;2022-07-06T21:51:56;3.85;;;2.30;;
64321;SDS011;50659;48.078;16.308;2022-07-06T21:55:59;3.92;;;2.50;;
64321;SDS011;50659;48.078;16.308;2022-07-06T22:00:02;2.75;;;2.20;;
64321;SDS011;50659;48.078;16.308;2022-07-06T22:04:13;4.00;;;2.40;;
64321;SDS011;50659;48.078;16.308;2022-07-06T22:08:16;3.20;;;2.42;;
64321;SDS011;50659;48.078;16.308;2022-07-06T22:12:19;5.05;;;2.50;;
64321;SDS011;50659;48.078;16.308;2022-07-06T22:16:22;5.82;;;2.50;;
64321;SDS011;50659;48.078;16.308;2022-07-06T22:20:28;3.95;;;2.30;;
64321;SDS011;50659;48.078;16.308;2022-07-06T22:24:31;2.65;;;2.30;;
64321;SDS011;50659;48.078;16.308;2022-07-06T22:28:34;3.35;;;2.20;;
64321;SDS011;50659;48.078;16.308;2022-07-06T22:32:37;4.93;;;2.47;;
64321;SDS011;50659;48.078;16.308;2022-07-06T22:36:41;3.28;;;2.30;;
64321;SDS011;50659;48.078;16.308;2022-07-06T22:40:44;3.17;;;2.38;;
64321;SDS011;50659;48.078;16.308;2022-07-06T22:45:06;3.38;;;2.60;;
64321;SDS011;50659;48.078;16.308;2022-07-06T22:49:09;3.38;;;3.00;;
64321;SDS011;50659;48.078;16.308;2022-07-06T22:53:14;7.30;;;2.90;;
64321;SDS011;50659;48.078;16.308;2022-07-06T22:57:17;5.50;;;2.72;;
64321;SDS011;50659;48.078;16.308;2022-07-06T23:01:20;2.92;;;2.63;;
64321;SDS011;50659;48.078;16.308;2022-07-06T23:05:23;5.80;;;2.85;;
64321;SDS011;50659;48.078;16.308;2022-07-06T23:09:27;3.25;;;2.92;;
64321;SDS011;50659;48.078;16.308;2022-07-06T23:13:30;3.17;;;2.88;;
64321;SDS011;50659;48.078;16.308;2022-07-06T23:17:33;5.43;;;3.47;;
64321;SDS011;50659;48.078;16.308;2022-07-06T23:21:36;4.95;;;3.50;;
64321;SDS011;50659;48.078;16.308;2022-07-06T23:25:41;5.63;;;3.28;;
64321;SDS011;50659;48.078;16.308;2022-07-06T23:29:44;4.10;;;2.90;;
64321;SDS011;50659;48.078;16.308;2022-07-06T23:33:47;3.42;;;2.90;;
64321;SDS011;50659;48.078;16.308;2022-07-06T23:37:50;5.65;;;3.17;;
64321;SDS011;50659;48.078;16.308;2022-07-06T23:41:54;3.40;;;2.60;;
64321;SDS011;50659;48.078;16.308;2022-07-06T23:45:58;3.35;;;3.05;;
64321;SDS011;50659;48.078;16.308;2022-07-06T23:50:02;3.33;;;2.90;;
64321;SDS011;50659;48.078;16.308;2022-07-06T23:54:05;3.10;;;2.80;;
64321;SDS011;50659;48.078;16.308;2022-07-06T23:58:10;5.07;;;2.80;;
